Aérodrome :
LOGIN :

S'inscrire | Disclaimer

   EN    FR    IT 

 










Légende :    VFR   VFR Marginal   IFR   IFR Intensif   IFR Très Intensif
Visi : 
Plafond : 
>= 8 km
>= 3000ft
5 à 8 km
1000 à 3000 ft
1500m à 5 km
500 à 1000 ft
800 à 1500m
200 à 500 ft
< 800m
< 200 ft
Symboles :   Orages  Brouillard  Fortes neiges  Fortes précipitations  Vent > 20 kt
SIGMETs :   Divers  Orages  Givrage  Turbulence  Onde Orograph.  Cendres Volcan.







- Altitude de l'aérodrome : 100 ft


EBDT - Schaffen

DERNIER METAR :
  • 190855Z 24006KT 9999 FEW010 08/05 Q1020 BLACKBLU BLU

METARs EXPIRÉS :
  • 190825Z 23007KT 9999 FEW010 07/05 Q1019 BLACKBLU BLU
  • 190755Z 22005KT 9999 FEW013 07/05 Q1019 BLACKBLU BLU
  • 190725Z 22004KT 9999 FEW011 06/05 Q1019 BLACKBLU BLU
  • 190722Z 22004KT 9999 FEW011 06/05 Q1019 BLACKBLU BLU
  • 190711Z 24006KT 9999 SCT011 07/05 Q1019 BLACKGRN GRN BECMG BLU
  • 190655Z 25007KT 9999 SCT011 BKN015 07/05 Q1019 BLACKGRN GRN
  • 190625Z 25007KT 9999 BKN011 07/05 Q1018 BLACKGRN GRN

TAF COR TAF EBDT
Valide du 19 à 07h jusqu'au 19 à 16h UTC


190715Z 1907/1916 24006KT 9999 SCT009
BECMG 1907/1909 25010KT BKN030
Pas de NOTAMs connus pour ce terrain.



MET'MAP, la Météo Aéronautique d'un coup d'oeil ! - Copyright ORBIFLY Décembre 2007 - Disclaimer

ORBIFLY MET'MAP TEAM :

Programmation & Développement : Alexandra Zaïnal
Conception & Développement : Baudouin d'Aumeries
Co-Programmation & Développement : Marc-Olivier Méhu
Soutien technique & logistique : Manuel Goepfert

Contact : metmap@orbifly.com




SOURCES & CREDITS :

   NOAA